BAW76 LIRA-LIMJ
Flight info
| Callsign | BAW76 |
|---|---|
| Flight time | 0h 46m |
| Altitude | 34000 |
| Route | GILIO6V GILIO DCT ELB DCT BETEN DCT SPEZI/N0367F180 M729 IDONA IDONA1J |
| Aircraft | A319/M-SDE3FGIJ1KRWXY/LB1 |
Departure
| Time | 2026-05-05 20:13 |
|---|---|
| Airport | Ciampino–G. B. Pastine International Airport (LIRA) |
Arrival
| Time | 2026-05-05 20:59 |
|---|---|
| Airport | Genoa Cristoforo Colombo Airport (LIMJ) |
| Time | Latitude | Longitude | Altitude | Speed | Heading |
|---|---|---|---|---|---|
| 2026-05-05 19:45 | 41.79706 | 12.59192 | 406 ft | 0 kts | 322° |
| 2026-05-05 20:03 | 41.79699 | 12.59200 | 406 ft | 4 kts | 324° |
| 2026-05-05 20:03 | 41.79676 | 12.59217 | 406 ft | 4 kts | 346° |
| 2026-05-05 20:03 | 41.79653 | 12.59217 | 405 ft | 4 kts | 43° |
| 2026-05-05 20:03 | 41.79648 | 12.59211 | 406 ft | 0 kts | 52° |
| 2026-05-05 20:08 | 41.79652 | 12.59217 | 406 ft | 2 kts | 52° |
| 2026-05-05 20:08 | 41.79663 | 12.59236 | 406 ft | 4 kts | 52° |
| 2026-05-05 20:08 | 41.79690 | 12.59277 | 406 ft | 9 kts | 39° |
| 2026-05-05 20:08 | 41.79763 | 12.59301 | 403 ft | 11 kts | 8° |
| 2026-05-05 20:09 | 41.79832 | 12.59343 | 407 ft | 12 kts | 358° |
| 2026-05-05 20:09 | 41.79923 | 12.59290 | 405 ft | 17 kts | 333° |
| 2026-05-05 20:09 | 41.80045 | 12.59205 | 407 ft | 21 kts | 333° |
| 2026-05-05 20:09 | 41.80184 | 12.59111 | 405 ft | 23 kts | 333° |
| 2026-05-05 20:10 | 41.80313 | 12.59019 | 405 ft | 21 kts | 332° |
| 2026-05-05 20:10 | 41.80451 | 12.58924 | 407 ft | 23 kts | 332° |
| 2026-05-05 20:10 | 41.80591 | 12.58826 | 407 ft | 22 kts | 332° |
| 2026-05-05 20:10 | 41.80640 | 12.58790 | 404 ft | 1 kts | 331° |
| 2026-05-05 20:11 | 41.80656 | 12.58779 | 404 ft | 5 kts | 333° |
| 2026-05-05 20:11 | 41.80702 | 12.58760 | 407 ft | 9 kts | 358° |
| 2026-05-05 20:11 | 41.80735 | 12.58785 | 409 ft | 0 kts | 53° |
| 2026-05-05 20:12 | 41.80751 | 12.58818 | 407 ft | 5 kts | 60° |
| 2026-05-05 20:12 | 41.80776 | 12.58883 | 412 ft | 8 kts | 77° |
| 2026-05-05 20:13 | 41.80692 | 12.58964 | 412 ft | 37 kts | 152° |
| 2026-05-05 20:13 | 41.80215 | 12.59294 | 412 ft | 114 kts | 153° |
| 2026-05-05 20:13 | 41.79383 | 12.59869 | 751 ft | 139 kts | 154° |
| 2026-05-05 20:13 | 41.78504 | 12.60401 | 1437 ft | 138 kts | 158° |
| 2026-05-05 20:14 | 41.77597 | 12.60815 | 2094 ft | 139 kts | 170° |
| 2026-05-05 20:14 | 41.76582 | 12.60838 | 2479 ft | 157 kts | 188° |
| 2026-05-05 20:14 | 41.75475 | 12.60324 | 2818 ft | 181 kts | 206° |
| 2026-05-05 20:14 | 41.74264 | 12.59501 | 3185 ft | 209 kts | 210° |
| 2026-05-05 20:15 | 41.73306 | 12.58007 | 3876 ft | 222 kts | 251° |
| 2026-05-05 20:15 | 41.73318 | 12.55940 | 4789 ft | 228 kts | 284° |
| 2026-05-05 20:15 | 41.73777 | 12.53899 | 5779 ft | 230 kts | 287° |
| 2026-05-05 20:15 | 41.74269 | 12.51841 | 6715 ft | 234 kts | 287° |
| 2026-05-05 20:16 | 41.74755 | 12.49747 | 7673 ft | 237 kts | 285° |
| 2026-05-05 20:16 | 41.75225 | 12.47628 | 8619 ft | 239 kts | 285° |
| 2026-05-05 20:16 | 41.75693 | 12.45477 | 9554 ft | 242 kts | 284° |
| 2026-05-05 20:16 | 41.76160 | 12.43309 | 10506 ft | 243 kts | 284° |
| 2026-05-05 20:17 | 41.76625 | 12.41139 | 11505 ft | 242 kts | 285° |
| 2026-05-05 20:17 | 41.77100 | 12.38930 | 12201 ft | 257 kts | 285° |
| 2026-05-05 20:17 | 41.77620 | 12.36525 | 12573 ft | 281 kts | 285° |
| 2026-05-05 20:17 | 41.78185 | 12.33906 | 12892 ft | 305 kts | 285° |
| 2026-05-05 20:18 | 41.78793 | 12.31077 | 13225 ft | 325 kts | 285° |
| 2026-05-05 20:18 | 41.79428 | 12.28131 | 13854 ft | 333 kts | 285° |
| 2026-05-05 20:18 | 41.80074 | 12.25132 | 14585 ft | 337 kts | 285° |
| 2026-05-05 20:18 | 41.80689 | 12.22080 | 15324 ft | 341 kts | 282° |
| 2026-05-05 20:19 | 41.81209 | 12.18970 | 16053 ft | 344 kts | 280° |
| 2026-05-05 20:19 | 41.81677 | 12.15810 | 16750 ft | 348 kts | 279° |
| 2026-05-05 20:19 | 41.82128 | 12.12613 | 17443 ft | 351 kts | 279° |
| 2026-05-05 20:19 | 41.82585 | 12.09381 | 18125 ft | 354 kts | 279° |
| 2026-05-05 20:20 | 41.83055 | 12.06123 | 18789 ft | 358 kts | 279° |
| 2026-05-05 20:20 | 41.83537 | 12.02831 | 19424 ft | 362 kts | 279° |
| 2026-05-05 20:20 | 41.84033 | 11.99503 | 20070 ft | 365 kts | 279° |
| 2026-05-05 20:20 | 41.84536 | 11.96151 | 20701 ft | 369 kts | 279° |
| 2026-05-05 20:21 | 41.85047 | 11.92754 | 21315 ft | 373 kts | 279° |
| 2026-05-05 20:21 | 41.85560 | 11.89335 | 21914 ft | 376 kts | 279° |
| 2026-05-05 20:21 | 41.86079 | 11.85883 | 22474 ft | 379 kts | 279° |
| 2026-05-05 20:21 | 41.86601 | 11.82398 | 23031 ft | 383 kts | 279° |
| 2026-05-05 20:22 | 41.87121 | 11.78881 | 23547 ft | 386 kts | 279° |
| 2026-05-05 20:22 | 41.87636 | 11.75382 | 24055 ft | 389 kts | 279° |
| 2026-05-05 20:22 | 41.88160 | 11.71806 | 24558 ft | 392 kts | 279° |
| 2026-05-05 20:22 | 41.88687 | 11.68213 | 25105 ft | 393 kts | 279° |
| 2026-05-05 20:23 | 41.89220 | 11.64617 | 25658 ft | 393 kts | 280° |
| 2026-05-05 20:23 | 41.90039 | 11.61097 | 26185 ft | 398 kts | 290° |
| 2026-05-05 20:23 | 41.91348 | 11.57809 | 26700 ft | 402 kts | 300° |
| 2026-05-05 20:23 | 41.93113 | 11.54866 | 27202 ft | 408 kts | 309° |
| 2026-05-05 20:24 | 41.95072 | 11.52105 | 27708 ft | 409 kts | 309° |
| 2026-05-05 20:24 | 41.97035 | 11.49335 | 28192 ft | 410 kts | 309° |
| 2026-05-05 20:24 | 41.99000 | 11.46555 | 28665 ft | 411 kts | 308° |
| 2026-05-05 20:24 | 42.00966 | 11.43767 | 29114 ft | 411 kts | 308° |
| 2026-05-05 20:25 | 42.02937 | 11.40971 | 29551 ft | 412 kts | 308° |
| 2026-05-05 20:25 | 42.04909 | 11.38165 | 29968 ft | 413 kts | 308° |
| 2026-05-05 20:25 | 42.06882 | 11.35343 | 30378 ft | 414 kts | 308° |
| 2026-05-05 20:25 | 42.08863 | 11.32509 | 30753 ft | 416 kts | 308° |
| 2026-05-05 20:26 | 42.10852 | 11.29672 | 31112 ft | 418 kts | 307° |
| 2026-05-05 20:26 | 42.12856 | 11.26817 | 31445 ft | 420 kts | 308° |
| 2026-05-05 20:26 | 42.14867 | 11.23954 | 31795 ft | 421 kts | 308° |
| 2026-05-05 20:26 | 42.16878 | 11.21085 | 32255 ft | 420 kts | 307° |
| 2026-05-05 20:27 | 42.18875 | 11.18228 | 32695 ft | 418 kts | 307° |
| 2026-05-05 20:27 | 42.20867 | 11.15372 | 33148 ft | 417 kts | 307° |
| 2026-05-05 20:27 | 42.22852 | 11.12525 | 33586 ft | 416 kts | 307° |
| 2026-05-05 20:27 | 42.24834 | 11.09680 | 33955 ft | 415 kts | 307° |
| 2026-05-05 20:28 | 42.26804 | 11.06855 | 34032 ft | 409 kts | 306° |
| 2026-05-05 20:28 | 42.30640 | 11.01345 | 34053 ft | 399 kts | 306° |
| 2026-05-05 20:29 | 42.34423 | 10.95872 | 34054 ft | 398 kts | 306° |
| 2026-05-05 20:29 | 42.38194 | 10.90401 | 34056 ft | 398 kts | 306° |
| 2026-05-05 20:30 | 42.41980 | 10.84924 | 34042 ft | 398 kts | 306° |
| 2026-05-05 20:30 | 42.45765 | 10.79451 | 34029 ft | 398 kts | 306° |
| 2026-05-05 20:31 | 42.49540 | 10.73964 | 34026 ft | 398 kts | 306° |
| 2026-05-05 20:31 | 42.53313 | 10.68480 | 34016 ft | 398 kts | 305° |
| 2026-05-05 20:32 | 42.57082 | 10.62990 | 34013 ft | 398 kts | 305° |
| 2026-05-05 20:32 | 42.60851 | 10.57493 | 34007 ft | 398 kts | 305° |
| 2026-05-05 20:33 | 42.64622 | 10.51983 | 34002 ft | 398 kts | 305° |
| 2026-05-05 20:33 | 42.68389 | 10.46465 | 34003 ft | 398 kts | 305° |
| 2026-05-05 20:34 | 42.72188 | 10.40972 | 33992 ft | 403 kts | 309° |
| 2026-05-05 20:34 | 42.76933 | 10.36649 | 33992 ft | 417 kts | 322° |
| 2026-05-05 20:35 | 42.82019 | 10.32839 | 33989 ft | 417 kts | 322° |
| 2026-05-05 20:35 | 42.87098 | 10.29025 | 33991 ft | 417 kts | 322° |
| 2026-05-05 20:36 | 42.92173 | 10.25189 | 33893 ft | 417 kts | 322° |
| 2026-05-05 20:36 | 42.94703 | 10.23272 | 33456 ft | 415 kts | 322° |
| 2026-05-05 20:36 | 42.97221 | 10.21366 | 32941 ft | 413 kts | 322° |
| 2026-05-05 20:36 | 42.99729 | 10.19468 | 32418 ft | 411 kts | 322° |
| 2026-05-05 20:37 | 43.02222 | 10.17580 | 31885 ft | 409 kts | 322° |
| 2026-05-05 20:37 | 43.03866 | 10.16331 | 31531 ft | 407 kts | 322° |
| 2026-05-05 20:37 | 43.07160 | 10.13821 | 30822 ft | 403 kts | 323° |
| 2026-05-05 20:37 | 43.09605 | 10.11955 | 30298 ft | 401 kts | 323° |
| 2026-05-05 20:38 | 43.12032 | 10.10103 | 29773 ft | 398 kts | 323° |
| 2026-05-05 20:38 | 43.14447 | 10.08264 | 29248 ft | 396 kts | 323° |
| 2026-05-05 20:38 | 43.16842 | 10.06439 | 28723 ft | 393 kts | 323° |
| 2026-05-05 20:38 | 43.19228 | 10.04617 | 28213 ft | 391 kts | 323° |
| 2026-05-05 20:39 | 43.21599 | 10.02801 | 27691 ft | 390 kts | 323° |
| 2026-05-05 20:39 | 43.23960 | 10.00992 | 27185 ft | 388 kts | 324° |
| 2026-05-05 20:39 | 43.26310 | 9.99191 | 26675 ft | 387 kts | 324° |
| 2026-05-05 20:39 | 43.28656 | 9.97388 | 26186 ft | 386 kts | 324° |
| 2026-05-05 20:40 | 43.30994 | 9.95592 | 25691 ft | 385 kts | 324° |
| 2026-05-05 20:40 | 43.33326 | 9.93801 | 25223 ft | 383 kts | 324° |
| 2026-05-05 20:40 | 43.35646 | 9.92020 | 24752 ft | 381 kts | 324° |
| 2026-05-05 20:40 | 43.37953 | 9.90246 | 24296 ft | 379 kts | 325° |
| 2026-05-05 20:41 | 43.40244 | 9.88484 | 23844 ft | 376 kts | 325° |
| 2026-05-05 20:41 | 43.42520 | 9.86732 | 23406 ft | 373 kts | 325° |
| 2026-05-05 20:41 | 43.44772 | 9.84994 | 22968 ft | 370 kts | 325° |
| 2026-05-05 20:41 | 43.47002 | 9.83270 | 22527 ft | 366 kts | 325° |
| 2026-05-05 20:42 | 43.49184 | 9.81582 | 22090 ft | 363 kts | 325° |
| 2026-05-05 20:42 | 43.51378 | 9.79883 | 21649 ft | 361 kts | 325° |
| 2026-05-05 20:42 | 43.53558 | 9.78191 | 21182 ft | 359 kts | 325° |
| 2026-05-05 20:42 | 43.55728 | 9.76510 | 20725 ft | 357 kts | 325° |
| 2026-05-05 20:43 | 43.57885 | 9.74841 | 20261 ft | 355 kts | 325° |
| 2026-05-05 20:43 | 43.60032 | 9.73177 | 19795 ft | 353 kts | 325° |
| 2026-05-05 20:43 | 43.62165 | 9.71523 | 19313 ft | 351 kts | 325° |
| 2026-05-05 20:43 | 43.64288 | 9.69874 | 18843 ft | 350 kts | 325° |
| 2026-05-05 20:44 | 43.66404 | 9.68227 | 18352 ft | 348 kts | 325° |
| 2026-05-05 20:44 | 43.68510 | 9.66584 | 17872 ft | 347 kts | 325° |
| 2026-05-05 20:44 | 43.70612 | 9.64942 | 17386 ft | 347 kts | 325° |
| 2026-05-05 20:44 | 43.72028 | 9.63836 | 17060 ft | 346 kts | 325° |
| 2026-05-05 20:45 | 43.76195 | 9.60608 | 16247 ft | 338 kts | 326° |
| 2026-05-05 20:45 | 43.78276 | 9.59118 | 15442 ft | 347 kts | 328° |
| 2026-05-05 20:45 | 43.80482 | 9.57611 | 14808 ft | 349 kts | 329° |
| 2026-05-05 20:46 | 43.82664 | 9.56149 | 14281 ft | 347 kts | 329° |
| 2026-05-05 20:46 | 43.84801 | 9.54722 | 13774 ft | 344 kts | 329° |
| 2026-05-05 20:46 | 43.86975 | 9.53259 | 13267 ft | 341 kts | 329° |
| 2026-05-05 20:46 | 43.89067 | 9.51834 | 12770 ft | 338 kts | 328° |
| 2026-05-05 20:47 | 43.91166 | 9.50391 | 12273 ft | 335 kts | 328° |
| 2026-05-05 20:47 | 43.93247 | 9.48950 | 11782 ft | 333 kts | 328° |
| 2026-05-05 20:47 | 43.95308 | 9.47521 | 11289 ft | 330 kts | 328° |
| 2026-05-05 20:47 | 43.97355 | 9.46100 | 10786 ft | 328 kts | 328° |
| 2026-05-05 20:48 | 43.99390 | 9.44687 | 10279 ft | 326 kts | 329° |
| 2026-05-05 20:48 | 44.01409 | 9.43286 | 9874 ft | 321 kts | 329° |
| 2026-05-05 20:48 | 44.03369 | 9.41927 | 9755 ft | 309 kts | 329° |
| 2026-05-05 20:48 | 44.05258 | 9.40620 | 9605 ft | 298 kts | 329° |
| 2026-05-05 20:49 | 44.07100 | 9.39344 | 9322 ft | 294 kts | 329° |
| 2026-05-05 20:49 | 44.08925 | 9.38076 | 8966 ft | 292 kts | 329° |
| 2026-05-05 20:49 | 44.10739 | 9.36811 | 8598 ft | 291 kts | 329° |
| 2026-05-05 20:49 | 44.12546 | 9.35553 | 8243 ft | 290 kts | 329° |
| 2026-05-05 20:50 | 44.14343 | 9.34297 | 7895 ft | 288 kts | 329° |
| 2026-05-05 20:50 | 44.16125 | 9.33055 | 7547 ft | 285 kts | 329° |
| 2026-05-05 20:50 | 44.17899 | 9.31820 | 7185 ft | 284 kts | 329° |
| 2026-05-05 20:50 | 44.19660 | 9.30591 | 6828 ft | 282 kts | 329° |
| 2026-05-05 20:51 | 44.21406 | 9.29369 | 6460 ft | 280 kts | 329° |
| 2026-05-05 20:51 | 44.23125 | 9.28167 | 6309 ft | 272 kts | 329° |
| 2026-05-05 20:51 | 44.24790 | 9.27007 | 6162 ft | 263 kts | 330° |
| 2026-05-05 20:51 | 44.26400 | 9.25886 | 6047 ft | 254 kts | 330° |
| 2026-05-05 20:52 | 44.27941 | 9.24813 | 6018 ft | 240 kts | 329° |
| 2026-05-05 20:52 | 44.29263 | 9.23579 | 6020 ft | 219 kts | 318° |
| 2026-05-05 20:52 | 44.30435 | 9.22337 | 5973 ft | 204 kts | 318° |
| 2026-05-05 20:52 | 44.31545 | 9.21165 | 5700 ft | 198 kts | 319° |
| 2026-05-05 20:53 | 44.32637 | 9.20004 | 5316 ft | 197 kts | 318° |
| 2026-05-05 20:53 | 44.33557 | 9.18660 | 5025 ft | 190 kts | 301° |
| 2026-05-05 20:53 | 44.34120 | 9.17001 | 4773 ft | 189 kts | 284° |
| 2026-05-05 20:53 | 44.34513 | 9.15252 | 4509 ft | 189 kts | 285° |
| 2026-05-05 20:54 | 44.34909 | 9.13509 | 4248 ft | 187 kts | 284° |
| 2026-05-05 20:54 | 44.35291 | 9.11766 | 3984 ft | 188 kts | 285° |
| 2026-05-05 20:54 | 44.35660 | 9.10079 | 3729 ft | 173 kts | 284° |
| 2026-05-05 20:54 | 44.36002 | 9.08510 | 3501 ft | 167 kts | 285° |
| 2026-05-05 20:55 | 44.36340 | 9.06950 | 3272 ft | 169 kts | 284° |
| 2026-05-05 20:55 | 44.36681 | 9.05384 | 3032 ft | 168 kts | 285° |
| 2026-05-05 20:55 | 44.37019 | 9.03820 | 2795 ft | 168 kts | 287° |
| 2026-05-05 20:55 | 44.37353 | 9.02276 | 2561 ft | 159 kts | 287° |
| 2026-05-05 20:56 | 44.37655 | 9.00883 | 2338 ft | 142 kts | 287° |
| 2026-05-05 20:56 | 44.37929 | 8.99611 | 2149 ft | 133 kts | 286° |
| 2026-05-05 20:56 | 44.38196 | 8.98383 | 1966 ft | 131 kts | 286° |
| 2026-05-05 20:56 | 44.38457 | 8.97175 | 1789 ft | 130 kts | 287° |
| 2026-05-05 20:57 | 44.38716 | 8.95970 | 1612 ft | 129 kts | 287° |
| 2026-05-05 20:57 | 44.38975 | 8.94771 | 1434 ft | 129 kts | 287° |
| 2026-05-05 20:57 | 44.39234 | 8.93570 | 1253 ft | 128 kts | 286° |
| 2026-05-05 20:57 | 44.39486 | 8.92401 | 1079 ft | 127 kts | 287° |
| 2026-05-05 20:58 | 44.39745 | 8.91199 | 898 ft | 128 kts | 287° |
| 2026-05-05 20:58 | 44.40024 | 8.90029 | 742 ft | 127 kts | 289° |
| 2026-05-05 20:58 | 44.40269 | 8.88845 | 600 ft | 127 kts | 285° |
| 2026-05-05 20:58 | 44.40510 | 8.87665 | 373 ft | 126 kts | 286° |
| 2026-05-05 20:59 | 44.40743 | 8.86485 | 193 ft | 126 kts | 284° |
| 2026-05-05 20:59 | 44.40973 | 8.85308 | 35 ft | 124 kts | 285° |
| 2026-05-05 20:59 | 44.41175 | 8.84284 | 23 ft | 88 kts | 285° |
| 2026-05-05 20:59 | 44.41293 | 8.83687 | 20 ft | 41 kts | 285° |
| 2026-05-05 21:00 | 44.41370 | 8.83293 | 22 ft | 35 kts | 284° |
| 2026-05-05 21:00 | 44.41445 | 8.83125 | 25 ft | 16 kts | 319° |
| 2026-05-05 21:00 | 44.41534 | 8.83111 | 28 ft | 13 kts | 39° |
| 2026-05-05 21:00 | 44.41538 | 8.83226 | 28 ft | 11 kts | 105° |
| 2026-05-05 21:01 | 44.41514 | 8.83355 | 26 ft | 16 kts | 104° |
| 2026-05-05 21:01 | 44.41481 | 8.83526 | 23 ft | 20 kts | 107° |
| 2026-05-05 21:01 | 44.41443 | 8.83707 | 20 ft | 19 kts | 105° |
| 2026-05-05 21:01 | 44.41406 | 8.83901 | 19 ft | 22 kts | 105° |
| 2026-05-05 21:02 | 44.41363 | 8.84122 | 16 ft | 24 kts | 105° |
| 2026-05-05 21:02 | 44.41324 | 8.84317 | 18 ft | 16 kts | 106° |
| 2026-05-05 21:02 | 44.41329 | 8.84433 | 20 ft | 12 kts | 60° |
| 2026-05-05 21:02 | 44.41387 | 8.84539 | 19 ft | 15 kts | 52° |
| 2026-05-05 21:03 | 44.41457 | 8.84667 | 19 ft | 18 kts | 52° |
| 2026-05-05 21:03 | 44.41532 | 8.84803 | 19 ft | 15 kts | 52° |
| 2026-05-05 21:03 | 44.41592 | 8.84908 | 19 ft | 11 kts | 49° |
| 2026-05-05 21:03 | 44.41633 | 8.84971 | 18 ft | 6 kts | 47° |
| 2026-05-05 21:04 | 44.41638 | 8.85006 | 20 ft | 3 kts | 119° |
| 2026-05-05 21:04 | 44.41623 | 8.85020 | 18 ft | 3 kts | 161° |
| 2026-05-05 21:04 | 44.41612 | 8.85015 | 20 ft | 2 kts | 201° |
| 2026-05-05 21:04 | 44.41604 | 8.85012 | 19 ft | 1 kts | 195° |
| 2026-05-05 21:05 | 44.41595 | 8.85009 | 18 ft | 1 kts | 195° |
| 2026-05-05 21:05 | 44.41594 | 8.85008 | 18 ft | 0 kts | 195° |